Woodstock, Alabama
Current Conditions -  °F | °C
As of 5:53 PM on Monday 24 Nov 2014 (Local Time) from KEET Reporting Station
Clear Clear  
Wind Chill: 57°   Ceiling: Unl
Heat Index: 57°   Visibility: 10mi
Dew Point: 45°   Wind: 7mph
Humidity: 64%   Direction: 310°NW
Pressure: 29.94"   Gusts: NA
Location:  33.21°N, 87.15°W
Report Text: KEET 242353Z AUTO 31006KT 10SM CLR 14/07 A2994 RMK AO2 SLP134 T01390072 10206 20139 51021
Loading
Personal Weather Stations






























Interactive Weather Map New forecast layout! Learn more

10-Day Weather Forecast

Advertisements
Track Severe Weather on mobile